This is the latest recevied weather packets stored in our database for station/object SA7AHC. If no packets are shown the sender has not sent any weather packets the latest 10 day(s).
| Time | Temp. | Humidity | Pressure | Rain* | Wind** | Luminosity | Snow |
|---|---|---|---|---|---|---|---|
| 1777640394 | 23.33° C | 25% | 1026.5 hPa | 0 mm | - | 671 W/m² | - |
| 1777639793 | 23.33° C | 25% | 1026.7 hPa | 0 mm | - | 686 W/m² | - |
| 1777639188 | 23.33° C | 25% | 1026.7 hPa | 0 mm | - | 698 W/m² | - |
| 1777638589 | 23.33° C | 24% | 1026.7 hPa | 0 mm | - | 708 W/m² | - |
| 1777637985 | 22.78° C | 26% | 1026.8 hPa | 0 mm | - | 717 W/m² | - |
| 1777637379 | 22.78° C | 26% | 1026.8 hPa | 0 mm | - | 731 W/m² | - |
| 1777636779 | 22.78° C | 27% | 1027 hPa | 0 mm | - | 735 W/m² | - |
| 1777636175 | 22.78° C | 26% | 1027.1 hPa | 0 mm | - | 740 W/m² | - |
| 1777635576 | 22.78° C | 28% | 1027.1 hPa | 0 mm | - | 747 W/m² | - |
| 1777634976 | 22.22° C | 26% | 1027.1 hPa | 0 mm | - | 751 W/m² | - |
| 1777634378 | 22.22° C | 29% | 1027.1 hPa | 0 mm | - | 752 W/m² | - |
| 1777633777 | 22.22° C | 27% | 1027.1 hPa | 0 mm | - | 752 W/m² | - |
| 1777633173 | 21.67° C | 29% | 1027 hPa | 0 mm | - | 752 W/m² | - |
| 1777632576 | 21.67° C | 29% | 1027.1 hPa | 0 mm | - | 735 W/m² | - |
| 1777631975 | 21.11° C | 31% | 1027.1 hPa | 0 mm | - | 754 W/m² | - |
| 1777631373 | 21.11° C | 30% | 1027.2 hPa | 0 mm | - | 751 W/m² | - |
| 1777630773 | 20.56° C | 34% | 1027.2 hPa | 0 mm | - | 747 W/m² | - |
| 1777630178 | 20.56° C | 32% | 1027.2 hPa | 0 mm | - | 740 W/m² | - |
| 1777629576 | 20.56° C | 34% | 1027.4 hPa | 0 mm | - | 735 W/m² | - |
| 1777628974 | 19.44° C | 36% | 1027.3 hPa | 0 mm | - | 724 W/m² | - |
| 1777628373 | 20° C | 34% | 1027.4 hPa | 0 mm | - | 712 W/m² | - |
| 1777627774 | 19.44° C | 35% | 1027.3 hPa | 0 mm | - | 703 W/m² | - |
| 1777627176 | 19.44° C | 36% | 1027.4 hPa | 0 mm | - | 689 W/m² | - |
| 1777626578 | 18.89° C | 37% | 1027.3 hPa | 0 mm | - | 675 W/m² | - |
| 1777625978 | 18.33° C | 40% | 1027.3 hPa | 0 mm | - | 666 W/m² | - |
* Rain latest hour (hover to see other rain measurements)
** Current wind speed in m/s (hover to see current wind gust speed)